createdAt,value
2023-02-02T00:00:45.420Z,78.86
2023-02-02T00:02:46.911Z,78.75
2023-02-02T00:04:48.412Z,79.44
2023-02-02T00:06:50.266Z,79.56
2023-02-02T00:08:52.254Z,78.50
2023-02-02T00:10:53.704Z,78.58
2023-02-02T00:12:57.973Z,78.82
2023-02-02T00:14:59.550Z,78.63
2023-02-02T00:17:01.040Z,78.56
2023-02-02T00:19:10.337Z,78.37
2023-02-02T00:21:11.792Z,78.82
2023-02-02T00:23:13.227Z,78.18
2023-02-02T00:25:14.691Z,79.33
2023-02-02T00:27:16.153Z,78.32
2023-02-02T00:29:23.903Z,78.55
2023-02-02T00:31:25.478Z,78.26
2023-02-02T00:33:26.967Z,78.48
2023-02-02T00:35:28.446Z,78.37
2023-02-02T00:37:29.887Z,78.12
2023-02-02T00:39:31.365Z,77.29
2023-02-02T00:41:32.833Z,76.87
2023-02-02T00:43:34.627Z,77.39
2023-02-02T00:45:36.781Z,76.83
2023-02-02T00:47:38.246Z,77.64
2023-02-02T00:49:39.732Z,78.34
2023-02-02T00:51:41.207Z,79.03
2023-02-02T00:53:42.650Z,79.77
2023-02-02T00:55:44.380Z,80.21
2023-02-02T00:57:46.239Z,81.72
2023-02-02T00:59:47.669Z,81.51
2023-02-02T01:01:49.182Z,83.25
2023-02-02T01:03:50.799Z,83.51
2023-02-02T01:05:52.313Z,83.49
2023-02-02T01:07:53.790Z,83.73
2023-02-02T01:09:55.244Z,84.31
2023-02-02T01:11:57.254Z,84.94
2023-02-02T01:13:58.719Z,84.19
2023-02-02T01:16:02.037Z,84.54
2023-02-02T01:18:03.625Z,84.87
2023-02-02T01:20:07.006Z,85.08
2023-02-02T01:22:09.261Z,86.36
2023-02-02T01:24:10.683Z,86.33
2023-02-02T01:26:13.552Z,87.11
2023-02-02T01:28:15.010Z,87.06
2023-02-02T01:30:16.550Z,87.58
2023-02-02T01:32:18.078Z,86.80
2023-02-02T01:34:19.640Z,86.89
2023-02-02T01:36:23.214Z,87.21
2023-02-02T01:38:25.129Z,87.16
2023-02-02T01:40:26.672Z,87.51
2023-02-02T01:42:28.223Z,87.63
2023-02-02T01:44:53.211Z,86.75
2023-02-02T01:46:54.663Z,87.11
2023-02-02T01:49:11.110Z,86.69
2023-02-02T01:51:17.319Z,87.00
2023-02-02T01:53:19.966Z,86.82
2023-02-02T01:55:25.151Z,87.20
2023-02-02T01:57:42.271Z,86.29
2023-02-02T01:59:46.467Z,86.55
2023-02-02T02:01:49.216Z,86.97
2023-02-02T02:03:50.717Z,86.48
2023-02-02T02:06:00.489Z,86.34
2023-02-02T02:08:13.646Z,86.62
2023-02-02T02:10:17.638Z,86.74
2023-02-02T02:12:19.070Z,86.00
2023-02-02T02:14:40.284Z,86.52
2023-02-02T02:16:47.270Z,85.97
2023-02-02T02:18:57.107Z,86.92
2023-02-02T02:21:35.383Z,85.87
2023-02-02T02:24:31.733Z,86.12
2023-02-02T02:26:35.985Z,86.65
2023-02-02T02:29:04.980Z,86.31
2023-02-02T02:31:44.103Z,86.23
2023-02-02T02:34:09.662Z,87.10
2023-02-02T02:36:20.791Z,87.16
2023-02-02T02:38:47.775Z,87.64
2023-02-02T02:40:58.107Z,87.96
2023-02-02T02:43:05.281Z,88.08
2023-02-02T02:45:08.381Z,88.66
2023-02-02T02:47:10.613Z,88.63
2023-02-02T02:49:13.719Z,89.25
2023-02-02T02:51:40.033Z,89.25
2023-02-02T02:53:41.572Z,89.81
2023-02-02T02:55:53.423Z,89.35
2023-02-02T02:58:16.371Z,89.28
2023-02-02T03:00:32.419Z,89.32
2023-02-02T03:02:45.668Z,89.66
2023-02-02T03:05:02.875Z,88.93
2023-02-02T03:07:10.398Z,88.35
2023-02-02T03:09:18.136Z,89.25
2023-02-02T03:11:20.663Z,88.47
2023-02-02T03:13:22.510Z,88.42
2023-02-02T03:15:24.709Z,88.64
2023-02-02T03:17:28.072Z,88.53
2023-02-02T03:19:29.555Z,88.06
2023-02-02T03:21:32.232Z,88.68
2023-02-02T03:23:34.406Z,88.46
2023-02-02T03:25:35.987Z,89.00
2023-02-02T03:27:38.950Z,88.83
2023-02-02T03:29:40.405Z,88.97
2023-02-02T03:31:42.009Z,88.79
2023-02-02T03:33:43.744Z,88.58
2023-02-02T03:35:45.294Z,88.64
2023-02-02T03:37:47.511Z,88.88
2023-02-02T03:39:49.016Z,89.80
2023-02-02T03:41:50.462Z,89.56
2023-02-02T03:43:51.895Z,89.42
2023-02-02T03:46:01.765Z,89.71
2023-02-02T03:48:05.475Z,90.46
2023-02-02T03:50:09.832Z,90.68
2023-02-02T03:52:11.440Z,91.37
2023-02-02T03:54:13.862Z,91.24
2023-02-02T03:56:16.121Z,91.56
2023-02-02T03:58:17.680Z,90.87
2023-02-02T04:00:19.512Z,90.87
2023-02-02T04:02:21.007Z,91.49
2023-02-02T04:04:22.519Z,90.87
2023-02-02T04:06:24.733Z,91.34
2023-02-02T04:08:26.311Z,90.93
2023-02-02T04:10:27.826Z,91.55
2023-02-02T04:12:29.274Z,91.17
2023-02-02T04:14:30.752Z,90.87
2023-02-02T04:16:34.891Z,91.63
2023-02-02T04:18:39.241Z,91.58
2023-02-02T04:20:40.707Z,91.67
2023-02-02T04:22:42.168Z,91.97
2023-02-02T04:24:43.642Z,91.75
2023-02-02T04:26:45.522Z,91.98
2023-02-02T04:28:47.003Z,91.84
2023-02-02T04:30:48.445Z,91.99
2023-02-02T04:32:51.390Z,91.36
2023-02-02T04:34:52.872Z,91.86
2023-02-02T04:36:54.321Z,91.86
2023-02-02T04:38:55.929Z,91.90
2023-02-02T04:40:57.395Z,92.19
2023-02-02T04:42:58.883Z,91.94
2023-02-02T04:45:00.318Z,92.54
2023-02-02T04:47:01.790Z,91.99
2023-02-02T04:49:03.267Z,92.37
2023-02-02T04:51:07.204Z,92.13
2023-02-02T04:53:08.652Z,92.84
2023-02-02T04:55:10.115Z,92.95
2023-02-02T04:57:11.579Z,92.45
2023-02-02T04:59:13.058Z,92.17
2023-02-02T05:01:20.792Z,92.53
2023-02-02T05:03:22.292Z,92.25
2023-02-02T05:05:24.031Z,92.23
2023-02-02T05:07:25.663Z,92.21
2023-02-02T05:09:27.243Z,92.91
2023-02-02T05:11:28.733Z,92.10
2023-02-02T05:13:30.189Z,92.56
2023-02-02T05:15:31.641Z,92.15
2023-02-02T05:17:33.374Z,92.32
2023-02-02T05:19:34.884Z,92.01
2023-02-02T05:21:36.331Z,92.78
2023-02-02T05:23:37.797Z,92.56
2023-02-02T05:25:39.242Z,92.05
2023-02-02T05:27:44.111Z,92.80
2023-02-02T05:29:47.321Z,92.84
2023-02-02T05:31:48.810Z,92.89
2023-02-02T05:33:50.302Z,92.99
2023-02-02T05:35:52.793Z,92.36
2023-02-02T05:37:54.249Z,92.86
2023-02-02T05:39:55.747Z,93.01
2023-02-02T05:41:57.175Z,93.38
2023-02-02T05:44:02.168Z,93.43
2023-02-02T05:46:03.778Z,93.28
2023-02-02T05:48:05.432Z,93.33
2023-02-02T05:50:07.237Z,93.26
2023-02-02T05:52:16.091Z,92.96
2023-02-02T05:54:20.451Z,93.66
2023-02-02T05:56:21.974Z,94.15
2023-02-02T05:58:23.737Z,93.83
2023-02-02T06:00:25.193Z,94.31
2023-02-02T06:02:26.756Z,94.69
2023-02-02T06:04:28.317Z,94.13
2023-02-02T06:06:29.752Z,94.33
2023-02-02T06:08:31.222Z,94.74
2023-02-02T06:10:32.700Z,95.21
2023-02-02T06:12:34.219Z,94.45
2023-02-02T06:14:35.876Z,95.21
2023-02-02T06:16:37.507Z,94.45
2023-02-02T06:18:39.105Z,94.76
2023-02-02T06:20:40.611Z,95.35
2023-02-02T06:22:43.832Z,95.61
2023-02-02T06:24:45.387Z,95.35
2023-02-02T06:26:46.895Z,95.13
2023-02-02T06:28:52.704Z,95.43
2023-02-02T06:30:54.278Z,96.24
2023-02-02T06:32:55.860Z,95.69
2023-02-02T06:34:57.323Z,96.43
2023-02-02T06:36:58.772Z,96.65
2023-02-02T06:39:00.325Z,96.36
2023-02-02T06:41:02.625Z,96.96
2023-02-02T06:43:04.302Z,96.06
2023-02-02T06:45:06.133Z,96.99
2023-02-02T06:47:07.648Z,96.94
2023-02-02T06:49:09.172Z,97.05
2023-02-02T06:51:10.649Z,96.80
2023-02-02T06:53:12.101Z,96.16
2023-02-02T06:55:13.674Z,96.92
2023-02-02T06:57:15.116Z,97.14
2023-02-02T06:59:16.615Z,96.84
2023-02-02T07:01:18.204Z,96.86
2023-02-02T07:03:21.444Z,97.02
2023-02-02T07:05:24.350Z,97.22
2023-02-02T07:07:26.114Z,97.11
2023-02-02T07:09:27.607Z,97.27
2023-02-02T07:11:29.609Z,97.86
2023-02-02T07:13:31.755Z,98.43
2023-02-02T07:15:34.336Z,97.77
2023-02-02T07:17:35.842Z,97.99
2023-02-02T07:19:37.354Z,98.24
2023-02-02T07:21:38.857Z,99.13
2023-02-02T07:23:40.341Z,99.27
2023-02-02T07:25:43.837Z,99.11
2023-02-02T07:27:47.808Z,99.39
2023-02-02T07:29:49.311Z,99.54
2023-02-02T07:31:51.291Z,99.11
2023-02-02T07:33:53.844Z,99.22
2023-02-02T07:35:55.370Z,99.24
2023-02-02T07:37:57.378Z,99.29
2023-02-02T07:39:58.888Z,100.00
2023-02-02T07:42:00.379Z,99.50
2023-02-02T07:44:01.965Z,99.35
2023-02-02T07:46:06.576Z,99.74
2023-02-02T07:48:08.113Z,99.98
2023-02-02T07:50:10.148Z,99.25
2023-02-02T07:52:11.659Z,98.77
2023-02-02T07:54:13.302Z,98.99
2023-02-02T07:56:17.243Z,98.84
2023-02-02T07:58:18.760Z,98.53
2023-02-02T08:00:20.779Z,98.31
2023-02-02T08:02:22.230Z,99.43
2023-02-02T08:04:23.695Z,98.84
2023-02-02T08:06:34.105Z,98.91
2023-02-02T08:08:35.591Z,98.19
2023-02-02T08:10:37.097Z,98.48
2023-02-02T08:12:38.579Z,98.71
2023-02-02T08:14:40.068Z,98.02
2023-02-02T08:16:41.580Z,98.41
2023-02-02T08:18:43.951Z,98.16
2023-02-02T08:20:45.487Z,98.32
2023-02-02T08:22:46.950Z,98.36
2023-02-02T08:24:48.490Z,97.59
2023-02-02T08:26:50.087Z,98.33
2023-02-02T08:29:03.969Z,97.91
2023-02-02T08:31:11.563Z,97.63
2023-02-02T08:33:13.549Z,97.06
2023-02-02T08:35:15.050Z,97.17
2023-02-02T08:37:16.515Z,96.81
2023-02-02T08:39:17.982Z,97.44
2023-02-02T08:41:22.683Z,96.45
2023-02-02T08:43:24.236Z,96.65
2023-02-02T08:46:03.874Z,96.80
2023-02-02T08:47:49.253Z,95.95
2023-02-02T08:49:55.341Z,95.89
2023-02-02T08:51:56.837Z,96.05
2023-02-02T08:53:58.339Z,96.49
2023-02-02T08:56:06.646Z,95.74
2023-02-02T08:58:08.171Z,96.34
2023-02-02T09:00:11.700Z,95.86
2023-02-02T09:02:13.878Z,95.92
2023-02-02T09:04:18.441Z,96.07
2023-02-02T09:06:21.211Z,96.31
2023-02-02T09:08:22.689Z,95.98
2023-02-02T09:10:24.179Z,96.52
2023-02-02T09:12:25.757Z,95.35
2023-02-02T09:14:27.400Z,95.24
2023-02-02T09:16:30.063Z,94.98
2023-02-02T09:18:31.693Z,94.81
2023-02-02T09:20:33.360Z,95.37
2023-02-02T09:22:34.991Z,94.60
2023-02-02T09:24:36.543Z,94.07
2023-02-02T09:26:40.558Z,93.81
2023-02-02T09:28:45.196Z,93.75
2023-02-02T09:30:46.676Z,93.67
2023-02-02T09:32:51.279Z,94.30
2023-02-02T09:34:52.765Z,93.90
2023-02-02T09:36:54.364Z,93.79
2023-02-02T09:38:55.933Z,93.26
2023-02-02T09:40:57.401Z,93.32
2023-02-02T09:43:18.030Z,92.97
2023-02-02T09:45:36.314Z,92.04
2023-02-02T09:48:20.203Z,92.05
2023-02-02T09:50:40.881Z,91.94
2023-02-02T09:53:08.027Z,91.98
2023-02-02T09:55:25.278Z,91.27
2023-02-02T09:57:36.701Z,91.04
2023-02-02T09:59:41.567Z,91.13
2023-02-02T10:01:45.144Z,90.84
2023-02-02T10:04:15.624Z,90.83
2023-02-02T10:06:35.724Z,91.17
2023-02-02T10:08:44.263Z,91.02
2023-02-02T10:10:47.119Z,91.09
2023-02-02T10:12:59.884Z,90.69
2023-02-02T10:15:17.840Z,90.47
2023-02-02T10:17:52.984Z,90.05
2023-02-02T10:20:01.119Z,90.13
2023-02-02T10:22:06.477Z,90.31
2023-02-02T10:24:17.782Z,89.81
2023-02-02T10:26:23.527Z,89.94
2023-02-02T10:28:33.882Z,89.28
2023-02-02T10:30:59.202Z,89.36
2023-02-02T10:33:06.930Z,88.66
2023-02-02T10:35:37.151Z,89.18
2023-02-02T10:38:07.436Z,89.67
2023-02-02T10:40:41.586Z,89.08
2023-02-02T10:43:20.191Z,89.33
2023-02-02T10:45:22.222Z,88.71
2023-02-02T10:47:27.964Z,87.94
2023-02-02T10:49:40.082Z,87.47
2023-02-02T10:51:50.324Z,87.60
2023-02-02T10:53:57.513Z,87.22
2023-02-02T10:56:06.935Z,87.18
2023-02-02T10:58:11.219Z,87.61
2023-02-02T11:00:39.092Z,87.74
2023-02-02T11:02:40.626Z,87.44
2023-02-02T11:05:00.565Z,88.58
2023-02-02T11:07:02.098Z,87.80
2023-02-02T11:09:04.988Z,87.97
2023-02-02T11:11:27.799Z,88.28
2023-02-02T11:13:37.102Z,87.89
2023-02-02T11:15:38.614Z,87.86
2023-02-02T11:17:40.196Z,87.61
2023-02-02T11:19:41.673Z,88.06
2023-02-02T11:21:47.626Z,88.02
2023-02-02T11:24:19.364Z,87.70
2023-02-02T11:26:22.932Z,87.61
2023-02-02T11:28:30.229Z,88.15
2023-02-02T11:30:35.827Z,87.91
2023-02-02T11:32:38.043Z,86.83
2023-02-02T11:34:39.535Z,86.08
2023-02-02T11:36:41.058Z,84.70
2023-02-02T11:38:42.525Z,84.24
2023-02-02T11:40:46.242Z,84.23
2023-02-02T11:42:48.397Z,84.32
2023-02-02T11:44:55.751Z,83.73
2023-02-02T11:46:57.505Z,84.32
2023-02-02T11:49:13.464Z,84.38
2023-02-02T11:51:23.607Z,85.37
2023-02-02T11:53:34.019Z,86.20
2023-02-02T11:55:35.688Z,85.82
2023-02-02T11:57:37.253Z,85.55
2023-02-02T11:59:43.769Z,85.74
2023-02-02T12:01:45.318Z,86.70
2023-02-02T12:03:48.613Z,86.61
2023-02-02T12:05:50.316Z,86.65
2023-02-02T12:07:51.826Z,86.11
2023-02-02T12:09:57.015Z,86.10
2023-02-02T12:12:07.516Z,86.11
2023-02-02T12:14:21.326Z,85.93
2023-02-02T12:16:37.616Z,85.75
2023-02-02T12:18:39.142Z,86.67
2023-02-02T12:21:02.624Z,86.13
2023-02-02T12:23:12.856Z,86.20
2023-02-02T12:25:14.278Z,85.40
2023-02-02T12:27:56.054Z,85.39
2023-02-02T12:30:08.808Z,85.95
2023-02-02T12:32:30.027Z,85.89
2023-02-02T12:35:05.551Z,85.54
2023-02-02T12:37:27.163Z,85.22
2023-02-02T12:39:52.705Z,84.90
2023-02-02T12:42:06.295Z,85.22
2023-02-02T12:45:04.176Z,84.60
2023-02-02T12:47:22.646Z,84.36
2023-02-02T12:49:42.366Z,84.53
2023-02-02T12:52:19.494Z,84.25
2023-02-02T12:54:54.534Z,83.95
2023-02-02T12:57:23.007Z,84.04
2023-02-02T12:59:57.864Z,82.72
2023-02-02T13:02:17.808Z,81.81
2023-02-02T13:04:26.982Z,81.97
2023-02-02T13:06:46.997Z,82.57
2023-02-02T13:08:58.671Z,82.25
2023-02-02T13:11:06.693Z,81.74
2023-02-02T13:13:16.906Z,81.49
2023-02-02T13:15:27.322Z,81.51
2023-02-02T13:17:46.632Z,81.13
2023-02-02T13:19:54.652Z,80.96
2023-02-02T13:21:59.420Z,80.92
2023-02-02T13:24:05.923Z,81.73
2023-02-02T13:26:15.771Z,82.13
2023-02-02T13:28:45.176Z,82.56
2023-02-02T13:30:49.928Z,81.40
2023-02-02T13:32:53.290Z,81.34
2023-02-02T13:35:17.844Z,81.04
2023-02-02T13:37:37.559Z,80.21
2023-02-02T13:39:45.950Z,80.68
2023-02-02T13:41:49.771Z,80.64
2023-02-02T13:44:04.938Z,80.00
2023-02-02T13:46:24.288Z,79.53
2023-02-02T13:48:31.513Z,79.79
2023-02-02T13:50:45.808Z,79.21
2023-02-02T13:52:54.916Z,79.32
2023-02-02T13:55:30.108Z,78.86
2023-02-02T13:57:59.268Z,80.19
2023-02-02T14:00:12.217Z,79.55
2023-02-02T14:02:28.442Z,79.44
2023-02-02T14:04:31.540Z,78.75
2023-02-02T14:06:56.251Z,78.76
2023-02-02T14:09:04.626Z,78.50
2023-02-02T14:11:08.123Z,79.77
2023-02-02T14:13:32.527Z,78.42
2023-02-02T14:15:39.400Z,77.57
2023-02-02T14:17:41.064Z,77.66
2023-02-02T14:19:56.487Z,77.92
2023-02-02T14:21:59.261Z,78.34
2023-02-02T14:24:22.555Z,78.80
2023-02-02T14:26:40.950Z,78.98
2023-02-02T14:28:46.163Z,79.01
2023-02-02T14:31:25.532Z,79.64
2023-02-02T14:33:38.845Z,79.70
2023-02-02T14:35:46.087Z,80.03
2023-02-02T14:37:52.929Z,80.60
2023-02-02T14:40:29.890Z,80.49
2023-02-02T14:42:58.956Z,80.18
2023-02-02T14:45:22.480Z,80.72
2023-02-02T14:47:48.328Z,80.81
2023-02-02T14:49:50.410Z,80.82
2023-02-02T14:51:55.657Z,81.04
2023-02-02T14:54:01.227Z,81.24
2023-02-02T14:56:14.443Z,81.74
2023-02-02T14:58:31.058Z,81.76
2023-02-02T15:00:35.081Z,82.02
2023-02-02T15:02:38.121Z,82.20
2023-02-02T15:04:39.670Z,82.61
2023-02-02T15:06:43.071Z,82.61
2023-02-02T15:08:44.833Z,83.09
2023-02-02T15:10:53.747Z,83.32
2023-02-02T15:13:10.855Z,83.45
2023-02-02T15:15:25.586Z,84.07
2023-02-02T15:17:48.688Z,83.80
2023-02-02T15:20:05.482Z,83.53
2023-02-02T15:22:31.443Z,84.00
2023-02-02T15:24:36.181Z,83.87
2023-02-02T15:26:42.830Z,84.06
2023-02-02T15:28:53.146Z,83.99
2023-02-02T15:31:13.285Z,84.28
2023-02-02T15:33:30.602Z,84.38
2023-02-02T15:35:32.783Z,84.98
2023-02-02T15:37:41.738Z,85.41
2023-02-02T15:39:48.950Z,85.56
2023-02-02T15:42:11.790Z,85.57
2023-02-02T15:44:21.691Z,86.22
2023-02-02T15:46:32.297Z,86.11
2023-02-02T15:48:34.788Z,86.26
2023-02-02T15:50:37.460Z,86.58
2023-02-02T15:52:47.525Z,87.06
2023-02-02T15:54:57.545Z,87.07
2023-02-02T15:57:02.936Z,87.36
2023-02-02T15:59:19.910Z,87.43
2023-02-02T16:01:25.969Z,87.36
2023-02-02T16:03:38.387Z,87.58
2023-02-02T16:05:55.842Z,87.22
2023-02-02T16:08:06.057Z,87.58
2023-02-02T16:10:08.428Z,87.84
2023-02-02T16:12:22.033Z,88.07
2023-02-02T16:14:23.868Z,88.20
2023-02-02T16:16:29.008Z,88.69
2023-02-02T16:18:30.865Z,88.94
2023-02-02T16:20:35.142Z,89.32
2023-02-02T16:22:38.028Z,89.51
2023-02-02T16:24:44.074Z,89.42
2023-02-02T16:26:45.881Z,89.80
2023-02-02T16:28:47.440Z,90.08
2023-02-02T16:30:51.765Z,90.50
2023-02-02T16:32:53.658Z,90.72
2023-02-02T16:34:55.376Z,91.12
2023-02-02T16:37:22.272Z,91.29
2023-02-02T16:39:24.172Z,92.15
2023-02-02T16:41:34.311Z,92.29
2023-02-02T16:43:38.119Z,92.94
2023-02-02T16:45:55.358Z,93.38
2023-02-02T16:48:19.686Z,94.09
2023-02-02T16:50:29.787Z,94.37
2023-02-02T16:52:32.279Z,94.72
2023-02-02T16:54:34.111Z,94.87
2023-02-02T16:56:39.955Z,95.25
2023-02-02T16:58:45.536Z,95.29
2023-02-02T17:01:14.961Z,95.49
2023-02-02T17:03:18.182Z,95.50
2023-02-02T17:05:26.114Z,95.77
2023-02-02T17:07:29.653Z,95.36
2023-02-02T17:09:37.312Z,95.81
2023-02-02T17:11:38.810Z,95.87
2023-02-02T17:13:41.619Z,95.62
2023-02-02T17:15:43.087Z,95.98
2023-02-02T17:17:47.754Z,95.96
2023-02-02T17:19:49.680Z,96.37
2023-02-02T17:21:51.354Z,96.19
2023-02-02T17:23:56.295Z,96.75
2023-02-02T17:25:58.550Z,96.58
2023-02-02T17:28:00.803Z,96.51
2023-02-02T17:30:03.703Z,97.42
2023-02-02T17:32:05.562Z,97.29
2023-02-02T17:34:16.960Z,97.17
2023-02-02T17:36:18.431Z,97.59
2023-02-02T17:38:21.505Z,97.60
2023-02-02T17:40:24.307Z,98.15
2023-02-02T17:42:30.582Z,98.23
2023-02-02T17:44:32.087Z,98.85
2023-02-02T17:46:35.083Z,98.61
2023-02-02T17:48:37.187Z,99.71
2023-02-02T17:50:39.579Z,98.99
2023-02-02T17:52:41.338Z,99.53
2023-02-02T17:54:42.786Z,99.98
2023-02-02T17:56:44.367Z,100.00
2023-02-02T17:58:45.799Z,100.00
2023-02-02T18:00:53.792Z,100.00
2023-02-02T18:03:01.381Z,100.00
2023-02-02T18:05:04.772Z,100.00
2023-02-02T18:07:07.563Z,100.00
2023-02-02T18:09:09.659Z,100.00
2023-02-02T18:11:13.458Z,100.00
2023-02-02T18:13:16.806Z,100.00
2023-02-02T18:15:18.333Z,100.00
2023-02-02T18:17:21.063Z,100.00
2023-02-02T18:19:22.565Z,100.00
2023-02-02T18:21:26.418Z,100.00
2023-02-02T18:23:28.395Z,100.00
2023-02-02T18:25:29.878Z,100.00
2023-02-02T18:27:31.603Z,100.00
2023-02-02T18:29:33.119Z,100.00
2023-02-02T18:31:34.631Z,100.00
2023-02-02T18:33:37.212Z,100.00
2023-02-02T18:35:42.564Z,100.00
2023-02-02T18:37:44.028Z,100.00
2023-02-02T18:39:45.511Z,100.00
2023-02-02T18:41:46.971Z,100.00
2023-02-02T18:43:48.516Z,100.00
2023-02-02T18:46:13.459Z,100.00
2023-02-02T18:48:16.186Z,100.00
2023-02-02T18:50:17.708Z,100.00
2023-02-02T18:52:19.687Z,100.00
2023-02-02T18:54:22.296Z,100.00
2023-02-02T18:56:23.765Z,100.00
2023-02-02T18:58:27.550Z,100.00
2023-02-02T19:00:29.062Z,100.00
2023-02-02T19:02:30.596Z,100.00
2023-02-02T19:04:32.252Z,100.00
2023-02-02T19:06:52.185Z,100.00
2023-02-02T19:08:54.771Z,100.00
2023-02-02T19:11:01.968Z,100.00
2023-02-02T19:13:19.444Z,100.00
2023-02-02T19:15:21.158Z,100.00
2023-02-02T19:17:27.974Z,100.00
2023-02-02T19:19:33.432Z,100.00
2023-02-02T19:21:34.904Z,100.00
2023-02-02T19:23:37.863Z,100.00
2023-02-02T19:25:46.272Z,100.00
2023-02-02T19:27:48.068Z,100.00
2023-02-02T19:29:52.875Z,100.00
2023-02-02T19:32:04.987Z,100.00
2023-02-02T19:34:12.369Z,100.00
2023-02-02T19:36:20.310Z,100.00
2023-02-02T19:38:22.737Z,100.00
2023-02-02T19:40:27.826Z,100.00
2023-02-02T19:42:29.513Z,100.00
2023-02-02T19:44:34.092Z,100.00
2023-02-02T19:46:42.326Z,100.00
2023-02-02T19:48:44.028Z,100.00
2023-02-02T19:50:46.551Z,100.00
2023-02-02T19:52:51.856Z,100.00
2023-02-02T19:54:53.941Z,100.00
2023-02-02T19:57:01.015Z,100.00
2023-02-02T19:59:02.683Z,100.00
2023-02-02T20:01:17.436Z,100.00
2023-02-02T20:03:20.636Z,100.00
2023-02-02T20:05:44.883Z,100.00
2023-02-02T20:07:48.050Z,100.00
2023-02-02T20:09:50.270Z,100.00
2023-02-02T20:11:53.167Z,100.00
2023-02-02T20:13:54.631Z,100.00
2023-02-02T20:16:03.566Z,100.00
2023-02-02T20:18:13.840Z,100.00
2023-02-02T20:20:26.382Z,100.00
2023-02-02T20:22:29.725Z,100.00
2023-02-02T20:24:36.879Z,100.00
2023-02-02T20:26:39.310Z,100.00
2023-02-02T20:28:45.403Z,100.00
2023-02-02T20:30:46.971Z,100.00
2023-02-02T20:32:55.054Z,100.00
2023-02-02T20:34:59.328Z,100.00
2023-02-02T20:37:12.750Z,100.00
2023-02-02T20:39:26.422Z,100.00
2023-02-02T20:41:27.941Z,100.00
2023-02-02T20:43:29.393Z,100.00
2023-02-02T20:45:30.870Z,100.00
2023-02-02T20:47:32.610Z,100.00
2023-02-02T20:49:35.146Z,100.00
2023-02-02T20:51:40.535Z,100.00
2023-02-02T20:53:42.017Z,100.00
2023-02-02T20:55:44.874Z,100.00
2023-02-02T20:57:46.416Z,100.00
2023-02-02T20:59:48.029Z,100.00
2023-02-02T21:01:50.513Z,100.00
2023-02-02T21:03:52.168Z,100.00
2023-02-02T21:05:53.730Z,100.00
2023-02-02T21:07:55.440Z,100.00
2023-02-02T21:09:56.939Z,100.00
2023-02-02T21:11:58.407Z,100.00
2023-02-02T21:14:00.019Z,100.00
2023-02-02T21:16:01.530Z,100.00
2023-02-02T21:18:03.022Z,100.00
2023-02-02T21:20:05.084Z,100.00
2023-02-02T21:22:06.553Z,100.00
2023-02-02T21:24:08.139Z,100.00
2023-02-02T21:26:09.623Z,100.00
2023-02-02T21:28:11.206Z,100.00
2023-02-02T21:30:14.092Z,100.00
2023-02-02T21:32:15.695Z,100.00
2023-02-02T21:34:20.837Z,100.00
2023-02-02T21:36:45.577Z,100.00
2023-02-02T21:38:47.135Z,100.00
2023-02-02T21:40:49.969Z,100.00
2023-02-02T21:42:51.418Z,100.00
2023-02-02T21:45:25.308Z,100.00
2023-02-02T21:47:40.168Z,100.00
2023-02-02T21:49:41.684Z,100.00
2023-02-02T21:51:43.256Z,100.00
2023-02-02T21:53:44.960Z,100.00
2023-02-02T21:55:59.438Z,100.00
2023-02-02T21:58:19.006Z,100.00
2023-02-02T22:00:25.783Z,100.00
2023-02-02T22:02:38.912Z,100.00
2023-02-02T22:04:40.448Z,100.00
2023-02-02T22:06:45.967Z,100.00
2023-02-02T22:08:48.863Z,100.00
2023-02-02T22:10:50.403Z,100.00
2023-02-02T22:12:51.877Z,100.00
2023-02-02T22:14:59.460Z,100.00
2023-02-02T22:17:00.961Z,100.00
2023-02-02T22:19:11.882Z,100.00
2023-02-02T22:21:16.101Z,100.00
2023-02-02T22:23:22.214Z,100.00
2023-02-02T22:25:30.201Z,100.00
2023-02-02T22:27:55.431Z,100.00
2023-02-02T22:30:02.399Z,100.00
2023-02-02T22:32:03.905Z,100.00
2023-02-02T22:34:05.906Z,100.00
2023-02-02T22:36:07.765Z,100.00
2023-02-02T22:38:10.213Z,100.00
2023-02-02T22:40:12.416Z,100.00
2023-02-02T22:42:13.894Z,100.00
2023-02-02T22:44:15.369Z,100.00
2023-02-02T22:46:16.913Z,100.00
2023-02-02T22:48:18.856Z,100.00
2023-02-02T22:50:31.224Z,100.00
2023-02-02T22:52:32.680Z,100.00
2023-02-02T22:54:34.201Z,100.00
2023-02-02T22:56:35.640Z,100.00
2023-02-02T22:58:37.152Z,100.00
2023-02-02T23:00:38.678Z,100.00
2023-02-02T23:02:41.316Z,100.00
2023-02-02T23:04:42.787Z,100.00
2023-02-02T23:06:44.234Z,100.00
2023-02-02T23:08:46.064Z,100.00
2023-02-02T23:10:47.610Z,100.00
2023-02-02T23:12:49.995Z,100.00
2023-02-02T23:14:51.456Z,100.00
2023-02-02T23:16:52.920Z,100.00
2023-02-02T23:18:54.402Z,100.00
2023-02-02T23:20:55.834Z,100.00
2023-02-02T23:22:57.381Z,100.00
2023-02-02T23:24:59.096Z,100.00
2023-02-02T23:27:00.668Z,100.00
2023-02-02T23:29:02.214Z,100.00
2023-02-02T23:31:03.862Z,100.00
2023-02-02T23:33:05.371Z,100.00
2023-02-02T23:35:10.341Z,100.00
2023-02-02T23:37:12.276Z,100.00
2023-02-02T23:39:13.803Z,100.00
2023-02-02T23:41:15.253Z,100.00
2023-02-02T23:43:16.749Z,100.00
2023-02-02T23:45:18.283Z,100.00
2023-02-02T23:47:19.828Z,100.00
2023-02-02T23:49:21.580Z,100.00
2023-02-02T23:51:23.306Z,100.00
2023-02-02T23:53:24.977Z,100.00
2023-02-02T23:55:26.749Z,100.00
2023-02-02T23:57:28.445Z,100.00
2023-02-02T23:59:30.214Z,100.00
